createdAt,value
2018-06-22T00:00:04.711Z,1020.96
2018-06-22T00:01:04.747Z,1020.96
2018-06-22T00:02:04.803Z,1021.01
2018-06-22T00:03:04.863Z,1021.02
2018-06-22T00:04:04.944Z,1021.01
2018-06-22T00:05:05.007Z,1021.01
2018-06-22T00:06:05.115Z,1021.01
2018-06-22T00:07:05.115Z,1021.03
2018-06-22T00:08:05.179Z,1021.02
2018-06-22T00:09:05.443Z,1021.01
2018-06-22T00:10:05.387Z,1021.04
2018-06-22T00:11:05.374Z,1021.04
2018-06-22T00:12:05.431Z,1021.07
2018-06-22T00:13:05.559Z,1021.01
2018-06-22T00:14:05.576Z,1021.02
2018-06-22T00:15:05.632Z,1021.02
2018-06-22T00:16:05.687Z,1021.03
2018-06-22T00:17:05.743Z,1020.97
2018-06-22T00:18:05.804Z,1021.02
2018-06-22T00:19:05.888Z,1020.98
2018-06-22T00:20:05.952Z,1020.96
2018-06-22T00:21:06.004Z,1020.92
2018-06-22T00:22:06.064Z,1020.90
2018-06-22T00:23:06.120Z,1020.89
2018-06-22T00:24:06.320Z,1020.91
2018-06-22T00:25:06.256Z,1020.87
2018-06-22T00:26:06.316Z,1020.88
2018-06-22T00:27:06.464Z,1020.86
2018-06-22T00:28:06.432Z,1020.86
2018-06-22T00:29:06.512Z,1020.84
2018-06-22T00:30:06.576Z,1020.84
2018-06-22T00:31:06.632Z,1020.87
2018-06-22T00:32:06.706Z,1020.83
2018-06-22T00:33:06.748Z,1020.87
2018-06-22T00:34:06.828Z,1020.83
2018-06-22T00:35:06.904Z,1020.82
2018-06-22T00:36:06.948Z,1020.81
2018-06-22T00:37:07.008Z,1020.82
2018-06-22T00:38:07.065Z,1020.86
2018-06-22T00:39:07.245Z,1020.84
2018-06-22T00:40:07.186Z,1020.83
2018-06-22T00:41:07.268Z,1020.83
2018-06-22T00:42:07.317Z,1020.79
2018-06-22T00:43:07.453Z,1020.82
2018-06-22T00:44:07.485Z,1020.81
2018-06-22T00:45:07.521Z,1020.78
2018-06-22T00:46:07.573Z,1020.79
2018-06-22T00:47:07.633Z,1020.78
2018-06-22T00:48:07.777Z,1020.77
2018-06-22T00:49:07.769Z,1020.76
2018-06-22T00:50:07.833Z,1020.78
2018-06-22T00:51:08.103Z,1020.75
2018-06-22T00:52:07.950Z,1020.77
2018-06-22T00:53:08.017Z,1020.77
2018-06-22T00:54:08.193Z,1020.73
2018-06-22T00:55:08.182Z,1020.73
2018-06-22T00:56:08.214Z,1020.68
2018-06-22T00:57:08.261Z,1020.67
2018-06-22T00:58:08.361Z,1020.67
2018-06-22T00:59:08.421Z,1020.61
2018-06-22T01:00:08.461Z,1020.62
2018-06-22T01:01:08.517Z,1020.63
2018-06-22T01:02:08.585Z,1020.60
2018-06-22T01:03:08.647Z,1020.63
2018-06-22T01:04:08.698Z,1020.57
2018-06-22T01:05:08.778Z,1020.60
2018-06-22T01:06:08.834Z,1020.57
2018-06-22T01:07:08.890Z,1020.55
2018-06-22T01:08:08.950Z,1020.52
2018-06-22T01:09:09.030Z,1020.49
2018-06-22T01:10:09.086Z,1020.47
2018-06-22T01:11:09.142Z,1020.47
2018-06-22T01:12:09.210Z,1020.52
2018-06-22T01:13:09.262Z,1020.59
2018-06-22T01:14:09.434Z,1020.58
2018-06-22T01:15:09.459Z,1020.58
2018-06-22T01:16:09.450Z,1020.56
2018-06-22T01:17:09.514Z,1020.55
2018-06-22T01:18:09.574Z,1020.55
2018-06-22T01:19:09.794Z,1020.53
2018-06-22T01:20:09.710Z,1020.58
2018-06-22T01:21:09.823Z,1020.57
2018-06-22T01:22:09.848Z,1020.56
2018-06-22T01:23:09.890Z,1020.57
2018-06-22T01:24:09.955Z,1020.60
2018-06-22T01:25:10.029Z,1020.54
2018-06-22T01:26:10.083Z,1020.54
2018-06-22T01:27:10.147Z,1020.52
2018-06-22T01:28:10.202Z,1020.53
2018-06-22T01:29:10.266Z,1020.49
2018-06-22T01:30:10.347Z,1020.51
2018-06-22T01:31:10.542Z,1020.54
2018-06-22T01:32:10.459Z,1020.51
2018-06-22T01:33:10.590Z,1020.51
2018-06-22T01:34:10.578Z,1020.50
2018-06-22T01:35:10.647Z,1020.53
2018-06-22T01:36:10.728Z,1020.53
2018-06-22T01:37:10.771Z,1020.51
2018-06-22T01:38:10.835Z,1020.53
2018-06-22T01:39:10.891Z,1020.56
2018-06-22T01:40:10.963Z,1020.52
2018-06-22T01:41:11.031Z,1020.51
2018-06-22T01:42:11.155Z,1020.51
2018-06-22T01:43:11.263Z,1020.53
2018-06-22T01:44:11.208Z,1020.50
2018-06-22T01:45:11.267Z,1020.50
2018-06-22T01:46:11.423Z,1020.49
2018-06-22T01:47:11.395Z,1020.45
2018-06-22T01:48:11.463Z,1020.43
2018-06-22T01:49:11.520Z,1020.45
2018-06-22T01:50:11.583Z,1020.47
2018-06-22T01:51:11.655Z,1020.51
2018-06-22T01:52:11.715Z,1020.48
2018-06-22T01:53:11.776Z,1020.45
2018-06-22T01:54:11.977Z,1020.44
2018-06-22T01:55:11.924Z,1020.48
2018-06-22T01:56:11.984Z,1020.48
2018-06-22T01:57:12.028Z,1020.52
2018-06-22T01:58:12.100Z,1020.44
2018-06-22T01:59:12.156Z,1020.48
2018-06-22T02:00:12.208Z,1020.49
2018-06-22T02:01:12.316Z,1020.42
2018-06-22T02:02:12.328Z,1020.40
2018-06-22T02:03:12.400Z,1020.42
2018-06-22T02:04:12.456Z,1020.53
2018-06-22T02:05:12.524Z,1020.50
2018-06-22T02:06:12.698Z,1020.51
2018-06-22T02:07:12.652Z,1020.50
2018-06-22T02:08:12.708Z,1020.48
2018-06-22T02:09:12.770Z,1020.49
2018-06-22T02:10:12.829Z,1020.54
2018-06-22T02:11:12.904Z,1020.54
2018-06-22T02:12:12.968Z,1020.53
2018-06-22T02:13:13.021Z,1020.57
2018-06-22T02:14:13.084Z,1020.55
2018-06-22T02:15:13.144Z,1020.53
2018-06-22T02:16:13.513Z,1020.53
2018-06-22T02:17:13.281Z,1020.53
2018-06-22T02:18:13.337Z,1020.47
2018-06-22T02:19:13.401Z,1020.49
2018-06-22T02:20:13.457Z,1020.51
2018-06-22T02:21:13.525Z,1020.53
2018-06-22T02:22:13.589Z,1020.48
2018-06-22T02:23:13.645Z,1020.50
2018-06-22T02:24:13.709Z,1020.50
2018-06-22T02:25:13.769Z,1020.46
2018-06-22T02:26:13.842Z,1020.48
2018-06-22T02:27:13.905Z,1020.45
2018-06-22T02:28:13.957Z,1020.48
2018-06-22T02:29:14.021Z,1020.41
2018-06-22T02:30:14.191Z,1020.44
2018-06-22T02:31:14.454Z,1020.43
2018-06-22T02:32:14.209Z,1020.45
2018-06-22T02:33:14.277Z,1020.43
2018-06-22T02:34:14.342Z,1020.42
2018-06-22T02:35:14.398Z,1020.39
2018-06-22T02:36:14.465Z,1020.36
2018-06-22T02:37:14.543Z,1020.34
2018-06-22T02:38:14.589Z,1020.38
2018-06-22T02:39:14.650Z,1020.37
2018-06-22T02:40:14.782Z,1020.37
2018-06-22T02:41:14.777Z,1020.38
2018-06-22T02:42:14.951Z,1020.36
2018-06-22T02:43:14.898Z,1020.35
2018-06-22T02:44:14.957Z,1020.39
2018-06-22T02:45:15.022Z,1020.36
2018-06-22T02:46:15.086Z,1020.35
2018-06-22T02:47:15.420Z,1020.36
2018-06-22T02:48:15.210Z,1020.34
2018-06-22T02:49:15.298Z,1020.34
2018-06-22T02:50:15.334Z,1020.33
2018-06-22T02:51:15.398Z,1020.30
2018-06-22T02:52:15.466Z,1020.27
2018-06-22T02:53:15.535Z,1020.29
2018-06-22T02:54:15.587Z,1020.27
2018-06-22T02:55:15.655Z,1020.34
2018-06-22T02:56:15.710Z,1020.31
2018-06-22T02:57:15.878Z,1020.31
2018-06-22T02:58:15.846Z,1020.32
2018-06-22T02:59:15.895Z,1020.33
2018-06-22T03:00:15.966Z,1020.36
2018-06-22T03:01:16.027Z,1020.34
2018-06-22T03:02:16.194Z,1020.39
2018-06-22T03:03:16.151Z,1020.38
2018-06-22T03:04:16.210Z,1020.39
2018-06-22T03:05:16.270Z,1020.36
2018-06-22T03:06:16.338Z,1020.38
2018-06-22T03:07:16.406Z,1020.36
2018-06-22T03:08:17.239Z,1020.39
2018-06-22T03:09:16.523Z,1020.39
2018-06-22T03:10:16.675Z,1020.37
2018-06-22T03:11:16.651Z,1020.43
2018-06-22T03:12:16.791Z,1020.41
2018-06-22T03:13:16.779Z,1020.35
2018-06-22T03:14:16.867Z,1020.36
2018-06-22T03:15:16.899Z,1020.37
2018-06-22T03:16:16.967Z,1020.36
2018-06-22T03:17:17.032Z,1020.39
2018-06-22T03:18:17.095Z,1020.45
2018-06-22T03:19:17.179Z,1020.39
2018-06-22T03:20:17.219Z,1020.39
2018-06-22T03:21:17.280Z,1020.41
2018-06-22T03:22:17.343Z,1020.43
2018-06-22T03:23:17.407Z,1020.41
2018-06-22T03:24:17.643Z,1020.47
2018-06-22T03:25:17.524Z,1020.42
2018-06-22T03:26:17.588Z,1020.44
2018-06-22T03:27:17.660Z,1020.43
2018-06-22T03:28:17.796Z,1020.42
2018-06-22T03:29:17.848Z,1020.40
2018-06-22T03:30:17.841Z,1020.42
2018-06-22T03:31:17.900Z,1020.43
2018-06-22T03:32:17.968Z,1020.45
2018-06-22T03:33:18.076Z,1020.42
2018-06-22T03:34:18.088Z,1020.41
2018-06-22T03:35:18.148Z,1020.41
2018-06-22T03:36:18.281Z,1020.40
2018-06-22T03:37:18.288Z,1020.43
2018-06-22T03:38:18.453Z,1020.38
2018-06-22T03:39:18.400Z,1020.38
2018-06-22T03:40:18.460Z,1020.38
2018-06-22T03:41:18.540Z,1020.36
2018-06-22T03:42:18.620Z,1020.33
2018-06-22T03:43:18.656Z,1020.35
2018-06-22T03:44:18.716Z,1020.31
2018-06-22T03:45:18.775Z,1020.33
2018-06-22T03:46:18.837Z,1020.37
2018-06-22T03:47:18.904Z,1020.36
2018-06-22T03:48:18.969Z,1020.34
2018-06-22T03:49:19.024Z,1020.34
2018-06-22T03:50:19.133Z,1020.29
2018-06-22T03:51:19.157Z,1020.37
2018-06-22T03:52:19.225Z,1020.33
2018-06-22T03:53:19.272Z,1020.35
2018-06-22T03:54:19.336Z,1020.30
2018-06-22T03:55:19.400Z,1020.29
2018-06-22T03:56:19.528Z,1020.29
2018-06-22T03:57:19.529Z,1020.28
2018-06-22T03:58:19.593Z,1020.33
2018-06-22T03:59:19.652Z,1020.35
2018-06-22T04:00:19.857Z,1020.30
2018-06-22T04:01:19.773Z,1020.32
2018-06-22T04:02:19.841Z,1020.27
2018-06-22T04:03:19.957Z,1020.32
2018-06-22T04:04:19.997Z,1020.31
2018-06-22T04:05:20.043Z,1020.38
2018-06-22T04:06:20.085Z,1020.38
2018-06-22T04:07:20.177Z,1020.41
2018-06-22T04:08:20.214Z,1020.39
2018-06-22T04:09:20.277Z,1020.36
2018-06-22T04:10:20.341Z,1020.36
2018-06-22T04:11:20.401Z,1020.33
2018-06-22T04:12:20.465Z,1020.31
2018-06-22T04:13:20.529Z,1020.29
2018-06-22T04:14:20.586Z,1020.31
2018-06-22T04:15:20.651Z,1020.30
2018-06-22T04:16:20.713Z,1020.24
2018-06-22T04:17:20.822Z,1020.25
2018-06-22T04:18:20.846Z,1020.30
2018-06-22T04:19:20.898Z,1020.26
2018-06-22T04:20:20.961Z,1020.26
2018-06-22T04:21:21.077Z,1020.24
2018-06-22T04:22:21.102Z,1020.22
2018-06-22T04:23:21.151Z,1020.20
2018-06-22T04:24:21.254Z,1020.15
2018-06-22T04:25:21.274Z,1020.21
2018-06-22T04:26:21.334Z,1020.19
2018-06-22T04:27:21.406Z,1020.15
2018-06-22T04:28:21.466Z,1020.21
2018-06-22T04:29:21.678Z,1020.18
2018-06-22T04:30:21.586Z,1020.24
2018-06-22T04:31:21.651Z,1020.22
2018-06-22T04:32:21.718Z,1020.22
2018-06-22T04:33:21.830Z,1020.21
2018-06-22T04:34:21.850Z,1020.19
2018-06-22T04:35:21.906Z,1020.15
2018-06-22T04:36:21.967Z,1020.16
2018-06-22T04:37:22.031Z,1020.17
2018-06-22T04:38:22.094Z,1020.17
2018-06-22T04:39:22.170Z,1020.21
2018-06-22T04:40:22.210Z,1020.26
2018-06-22T04:41:22.275Z,1020.29
2018-06-22T04:42:22.378Z,1020.31
2018-06-22T04:43:22.403Z,1020.31
2018-06-22T04:44:22.462Z,1020.24
2018-06-22T04:45:22.530Z,1020.20
2018-06-22T04:46:22.587Z,1020.18
2018-06-22T04:47:22.655Z,1020.16
2018-06-22T04:48:22.718Z,1020.14
2018-06-22T04:49:22.775Z,1020.15
2018-06-22T04:50:22.843Z,1020.13
2018-06-22T04:51:22.903Z,1020.20
2018-06-22T04:52:22.972Z,1020.20
2018-06-22T04:53:23.035Z,1020.18
2018-06-22T04:54:23.247Z,1020.20
2018-06-22T04:55:23.279Z,1020.24
2018-06-22T04:56:23.216Z,1020.28
2018-06-22T04:57:23.676Z,1020.27
2018-06-22T04:58:23.344Z,1020.24
2018-06-22T04:59:23.404Z,1020.27
2018-06-22T05:00:23.463Z,1020.26
2018-06-22T05:01:23.604Z,1020.28
2018-06-22T05:02:23.767Z,1020.30
2018-06-22T05:03:23.676Z,1020.34
2018-06-22T05:04:23.716Z,1020.39
2018-06-22T05:05:23.780Z,1020.34
2018-06-22T05:06:23.844Z,1020.34
2018-06-22T05:07:23.910Z,1020.32
2018-06-22T05:08:24.044Z,1020.29
2018-06-22T05:09:24.116Z,1020.30
2018-06-22T05:10:24.096Z,1020.28
2018-06-22T05:11:24.158Z,1020.28
2018-06-22T05:12:24.220Z,1020.33
2018-06-22T05:13:24.285Z,1020.28
2018-06-22T05:14:24.364Z,1020.31
2018-06-22T05:15:24.410Z,1020.34
2018-06-22T05:16:24.474Z,1020.32
2018-06-22T05:17:24.533Z,1020.38
2018-06-22T05:18:24.648Z,1020.39
2018-06-22T05:19:24.772Z,1020.41
2018-06-22T05:20:24.729Z,1020.40
2018-06-22T05:21:24.857Z,1020.36
2018-06-22T05:22:24.849Z,1020.40
2018-06-22T05:23:24.913Z,1020.46
2018-06-22T05:24:24.981Z,1020.46
2018-06-22T05:25:25.045Z,1020.50
2018-06-22T05:26:25.102Z,1020.44
2018-06-22T05:27:25.325Z,1020.49
2018-06-22T05:28:25.224Z,1020.53
2018-06-22T05:29:25.305Z,1020.56
2018-06-22T05:30:25.411Z,1020.63
2018-06-22T05:31:25.649Z,1020.61
2018-06-22T05:32:25.477Z,1020.57
2018-06-22T05:33:25.544Z,1020.53
2018-06-22T05:34:25.612Z,1020.51
2018-06-22T05:35:25.673Z,1020.53
2018-06-22T05:36:25.729Z,1020.60
2018-06-22T05:37:25.793Z,1020.61
2018-06-22T05:38:25.853Z,1020.61
2018-06-22T05:39:25.927Z,1020.62
2018-06-22T05:40:25.997Z,1020.61
2018-06-22T05:41:26.401Z,1020.59
2018-06-22T05:42:26.151Z,1020.63
2018-06-22T05:43:26.169Z,1020.57
2018-06-22T05:44:26.256Z,1020.54
2018-06-22T05:45:26.293Z,1020.54
2018-06-22T05:46:26.357Z,1020.53
2018-06-22T05:47:26.454Z,1020.56
2018-06-22T05:48:26.485Z,1020.52
2018-06-22T05:49:26.553Z,1020.48
2018-06-22T05:50:26.634Z,1020.49
2018-06-22T05:51:26.675Z,1020.54
2018-06-22T05:52:26.733Z,1020.50
2018-06-22T05:53:26.801Z,1020.48
2018-06-22T05:54:26.874Z,1020.50
2018-06-22T05:55:26.934Z,1020.49
2018-06-22T05:56:27.001Z,1020.53
2018-06-22T05:57:27.050Z,1020.51
2018-06-22T05:58:27.113Z,1020.49
2018-06-22T05:59:27.490Z,1020.51
2018-06-22T06:00:27.322Z,1020.55
2018-06-22T06:01:27.306Z,1020.58
2018-06-22T06:02:27.366Z,1020.55
2018-06-22T06:03:27.441Z,1020.59
2018-06-22T06:04:27.510Z,1020.56
2018-06-22T06:05:27.562Z,1020.57
2018-06-22T06:06:27.619Z,1020.60
2018-06-22T06:07:27.682Z,1020.67
2018-06-22T06:08:27.742Z,1020.69
2018-06-22T06:09:27.814Z,1020.68
2018-06-22T06:10:27.882Z,1020.70
2018-06-22T06:11:27.935Z,1020.74
2018-06-22T06:12:28.030Z,1020.72
2018-06-22T06:13:28.058Z,1020.70
2018-06-22T06:14:28.437Z,1020.72
2018-06-22T06:15:28.186Z,1020.68
2018-06-22T06:16:28.244Z,1020.68
2018-06-22T06:17:28.310Z,1020.71
2018-06-22T06:18:28.490Z,1020.72
2018-06-22T06:19:28.442Z,1020.72
2018-06-22T06:20:28.510Z,1020.73
2018-06-22T06:21:28.563Z,1020.69
2018-06-22T06:22:28.627Z,1020.62
2018-06-22T06:23:28.742Z,1020.61
2018-06-22T06:24:28.760Z,1020.65
2018-06-22T06:25:28.822Z,1020.69
2018-06-22T06:26:28.878Z,1020.71
2018-06-22T06:27:28.939Z,1020.80
2018-06-22T06:28:28.999Z,1021.13
2018-06-22T06:29:29.071Z,1025.27
2018-06-22T06:30:29.136Z,1021.12
2018-06-22T06:31:29.207Z,1021.34
2018-06-22T06:32:29.264Z,1021.48
2018-06-22T06:33:29.323Z,1023.01
2018-06-22T06:34:29.400Z,1021.34
2018-06-22T06:35:29.460Z,1021.17
2018-06-22T06:36:29.515Z,1020.97
2018-06-22T06:37:29.584Z,1020.95
2018-06-22T06:38:29.647Z,1020.87
2018-06-22T06:39:29.728Z,1020.80
2018-06-22T06:40:29.784Z,1020.80
2018-06-22T06:41:29.840Z,1020.82
2018-06-22T06:42:29.908Z,1020.70
2018-06-22T06:43:30.824Z,1020.80
2018-06-22T06:44:30.045Z,1020.90
2018-06-22T06:45:30.108Z,1020.85
2018-06-22T06:46:30.776Z,1020.90
2018-06-22T06:47:30.232Z,1020.88
2018-06-22T06:48:30.299Z,1020.89
2018-06-22T06:49:30.419Z,1020.87
2018-06-22T06:50:30.433Z,1020.92
2018-06-22T06:51:30.488Z,1020.87
2018-06-22T06:52:30.553Z,1020.92
2018-06-22T06:53:30.617Z,1020.87
2018-06-22T06:54:30.689Z,1020.91
2018-06-22T06:55:30.753Z,1020.87
2018-06-22T06:56:30.809Z,1020.84
2018-06-22T06:57:30.877Z,1020.86
2018-06-22T06:58:30.941Z,1020.82
2018-06-22T06:59:31.009Z,1020.90
2018-06-22T07:00:31.073Z,1020.87
2018-06-22T07:01:31.133Z,1020.89
2018-06-22T07:02:31.262Z,1020.93
2018-06-22T07:03:31.261Z,1020.87
2018-06-22T07:04:31.501Z,1020.92
2018-06-22T07:05:31.389Z,1021.04
2018-06-22T07:06:31.454Z,1020.90
2018-06-22T07:07:31.525Z,1020.93
2018-06-22T07:08:31.667Z,1020.96
2018-06-22T07:09:31.658Z,1020.92
2018-06-22T07:10:31.713Z,1020.84
2018-06-22T07:11:31.778Z,1020.90
2018-06-22T07:12:31.842Z,1020.96
2018-06-22T07:13:31.902Z,1020.98
2018-06-22T07:14:32.062Z,1021.05
2018-06-22T07:15:32.033Z,1020.99
2018-06-22T07:16:32.095Z,1021.01
2018-06-22T07:17:32.157Z,1021.01
2018-06-22T07:18:32.225Z,1021.04
2018-06-22T07:19:32.442Z,1021.01
2018-06-22T07:20:32.346Z,1021.04
2018-06-22T07:21:32.418Z,1021.04
2018-06-22T07:22:32.478Z,1021.15
2018-06-22T07:23:32.875Z,1021.04
2018-06-22T07:24:32.726Z,1020.96
2018-06-22T07:25:32.690Z,1021.05
2018-06-22T07:26:32.734Z,1021.13
2018-06-22T07:27:32.842Z,1021.07
2018-06-22T07:28:32.858Z,1021.11
2018-06-22T07:29:32.930Z,1021.08
2018-06-22T07:30:32.998Z,1021.06
2018-06-22T07:31:33.054Z,1021.14
2018-06-22T07:32:33.164Z,1021.06
2018-06-22T07:33:33.255Z,1021.18
2018-06-22T07:34:33.243Z,1021.17
2018-06-22T07:35:33.529Z,1021.18
2018-06-22T07:36:33.370Z,1021.03
2018-06-22T07:37:33.438Z,1021.10
2018-06-22T07:38:33.701Z,1021.19
2018-06-22T07:39:33.614Z,1021.28
2018-06-22T07:40:33.635Z,1021.18
2018-06-22T07:41:33.700Z,1021.20
2018-06-22T07:42:33.783Z,1021.18
2018-06-22T07:43:33.847Z,1021.14
2018-06-22T07:44:33.883Z,1021.19
2018-06-22T07:45:33.955Z,1021.11
2018-06-22T07:46:34.031Z,1021.14
2018-06-22T07:47:34.079Z,1021.13
2018-06-22T07:48:34.147Z,1021.24
2018-06-22T07:49:34.219Z,1021.16
2018-06-22T07:50:34.515Z,1021.18
2018-06-22T07:51:34.399Z,1021.23
2018-06-22T07:52:34.396Z,1021.16
2018-06-22T07:53:34.455Z,1021.18
2018-06-22T07:54:34.533Z,1021.27
2018-06-22T07:55:34.596Z,1021.15
2018-06-22T07:56:34.671Z,1021.19
2018-06-22T07:57:34.716Z,1021.16
2018-06-22T07:58:34.798Z,1021.14
2018-06-22T07:59:34.847Z,1021.15
2018-06-22T08:00:34.928Z,1021.26
2018-06-22T08:01:35.001Z,1021.15
2018-06-22T08:02:35.136Z,1021.19
2018-06-22T08:03:35.104Z,1021.17
2018-06-22T08:04:35.168Z,1021.16
2018-06-22T08:05:35.247Z,1021.18
2018-06-22T08:06:35.348Z,1021.17
2018-06-22T08:07:35.364Z,1021.19
2018-06-22T08:08:35.441Z,1021.33
2018-06-22T08:09:35.548Z,1021.21
2018-06-22T08:10:35.569Z,1021.20
2018-06-22T08:11:35.623Z,1021.24
2018-06-22T08:12:35.684Z,1021.23
2018-06-22T08:13:35.773Z,1021.21
2018-06-22T08:14:35.812Z,1021.29
2018-06-22T08:15:35.880Z,1021.30
2018-06-22T08:16:35.944Z,1021.23
2018-06-22T08:17:36.003Z,1021.33
2018-06-22T08:18:36.080Z,1021.35
2018-06-22T08:19:36.124Z,1021.35
2018-06-22T08:20:36.248Z,1021.40
2018-06-22T08:21:36.261Z,1021.39
2018-06-22T08:22:36.324Z,1021.40
2018-06-22T08:23:36.446Z,1021.43
2018-06-22T08:24:36.484Z,1021.38
2018-06-22T08:25:36.524Z,1021.45
2018-06-22T08:26:36.576Z,1021.43
2018-06-22T08:27:36.722Z,1021.45
2018-06-22T08:28:36.721Z,1021.44
2018-06-22T08:29:36.819Z,1021.45
2018-06-22T08:30:36.833Z,1021.46
2018-06-22T08:31:36.896Z,1021.43
2018-06-22T08:32:36.953Z,1021.42
2018-06-22T08:33:37.031Z,1021.49
2018-06-22T08:34:37.088Z,1021.50
2018-06-22T08:35:37.265Z,1021.49
2018-06-22T08:36:37.393Z,1021.52
2018-06-22T08:37:37.273Z,1021.54
2018-06-22T08:38:37.473Z,1021.56
2018-06-22T08:39:37.401Z,1021.51
2018-06-22T08:40:37.481Z,1021.56
2018-06-22T08:41:37.806Z,1021.61
2018-06-22T08:42:37.621Z,1021.66
2018-06-22T08:43:37.657Z,1021.64
2018-06-22T08:44:37.717Z,1021.74
2018-06-22T08:45:37.813Z,1021.70
2018-06-22T08:46:37.897Z,1021.71
2018-06-22T08:47:37.913Z,1021.76
2018-06-22T08:48:37.980Z,1021.80
2018-06-22T08:49:38.076Z,1021.78
2018-06-22T08:50:38.106Z,1021.74
2018-06-22T08:51:38.198Z,1021.77
2018-06-22T08:52:38.238Z,1021.82
2018-06-22T08:53:38.298Z,1021.75
2018-06-22T08:54:38.362Z,1021.78
2018-06-22T08:55:38.454Z,1021.75
2018-06-22T08:56:38.502Z,1021.81
2018-06-22T08:57:38.574Z,1021.81
2018-06-22T08:58:38.618Z,1021.86
2018-06-22T08:59:38.702Z,1021.82
2018-06-22T09:00:38.750Z,1021.80
2018-06-22T09:01:38.903Z,1021.82
2018-06-22T09:02:38.878Z,1021.89
2018-06-22T09:03:38.935Z,1021.88
2018-06-22T09:04:39.011Z,1021.88
2018-06-22T09:05:39.071Z,1021.81
2018-06-22T09:06:39.155Z,1021.88
2018-06-22T09:07:39.203Z,1021.93
2018-06-22T09:08:39.270Z,1021.93
2018-06-22T09:09:39.463Z,1021.95
2018-06-22T09:10:39.391Z,1021.96
2018-06-22T09:11:39.547Z,1021.93
2018-06-22T09:12:39.566Z,1021.92
2018-06-22T09:13:39.579Z,1021.97
2018-06-22T09:14:39.639Z,1021.99
2018-06-22T09:15:39.703Z,1021.96
2018-06-22T09:16:39.783Z,1021.97
2018-06-22T09:17:39.858Z,1022.02
2018-06-22T09:18:39.946Z,1022.03
2018-06-22T09:19:40.028Z,1022.03
2018-06-22T09:20:40.037Z,1022.03
2018-06-22T09:21:40.244Z,1022.06
2018-06-22T09:22:40.152Z,1022.03
2018-06-22T09:23:40.327Z,1022.07
2018-06-22T09:24:40.339Z,1022.08
2018-06-22T09:25:40.350Z,1022.10
2018-06-22T09:26:40.556Z,1022.13
2018-06-22T09:27:40.484Z,1022.13
2018-06-22T09:28:40.543Z,1022.10
2018-06-22T09:29:40.635Z,1022.10
2018-06-22T09:30:40.671Z,1022.10
2018-06-22T09:31:40.747Z,1022.03
2018-06-22T09:32:40.803Z,1022.06
2018-06-22T09:33:40.866Z,1022.08
2018-06-22T09:34:40.923Z,1022.07
2018-06-22T09:35:40.991Z,1022.08
2018-06-22T09:36:41.109Z,1022.06
2018-06-22T09:37:41.150Z,1022.11
2018-06-22T09:38:41.299Z,1022.07
2018-06-22T09:39:41.299Z,1022.04
2018-06-22T09:40:41.340Z,1022.05
2018-06-22T09:41:41.396Z,1022.02
2018-06-22T09:42:41.529Z,1022.01
2018-06-22T09:43:41.508Z,1022.06
2018-06-22T09:44:41.564Z,1022.05
2018-06-22T09:45:41.673Z,1022.02
2018-06-22T09:46:41.704Z,1022.02
2018-06-22T09:47:41.768Z,1022.04
2018-06-22T09:48:41.826Z,1022.07
2018-06-22T09:49:41.888Z,1022.07
2018-06-22T09:50:41.955Z,1022.04
2018-06-22T09:51:42.024Z,1022.07
2018-06-22T09:52:42.088Z,1022.06
2018-06-22T09:53:42.248Z,1022.09
2018-06-22T09:54:42.225Z,1022.12
2018-06-22T09:55:42.272Z,1022.14
2018-06-22T09:56:42.344Z,1022.11
2018-06-22T09:57:42.408Z,1022.15
2018-06-22T09:58:42.465Z,1022.16
2018-06-22T09:59:42.528Z,1022.17
2018-06-22T10:00:42.589Z,1022.16
2018-06-22T10:01:42.666Z,1022.16
2018-06-22T10:02:42.728Z,1022.14
2018-06-22T10:03:42.796Z,1022.20
2018-06-22T10:04:42.899Z,1022.21
2018-06-22T10:05:42.916Z,1022.21
2018-06-22T10:06:42.987Z,1022.25
2018-06-22T10:07:43.048Z,1022.26
2018-06-22T10:08:43.109Z,1022.27
2018-06-22T10:09:43.197Z,1022.24
2018-06-22T10:10:43.379Z,1022.22
2018-06-22T10:11:43.457Z,1022.27
2018-06-22T10:12:43.365Z,1022.23
2018-06-22T10:13:43.429Z,1022.20
2018-06-22T10:14:43.725Z,1022.29
2018-06-22T10:15:43.597Z,1022.31
2018-06-22T10:16:43.629Z,1022.30
2018-06-22T10:17:43.737Z,1022.31
2018-06-22T10:18:43.757Z,1022.29
2018-06-22T10:19:43.880Z,1022.26
2018-06-22T10:20:43.881Z,1022.16
2018-06-22T10:21:43.953Z,1022.22
2018-06-22T10:22:44.017Z,1022.22
2018-06-22T10:23:44.077Z,1022.19
2018-06-22T10:24:44.249Z,1022.19
2018-06-22T10:25:44.209Z,1022.21
2018-06-22T10:26:44.273Z,1022.20
2018-06-22T10:27:44.358Z,1022.23
2018-06-22T10:28:44.398Z,1022.24
2018-06-22T10:29:44.461Z,1022.20
2018-06-22T10:30:44.555Z,1022.13
2018-06-22T10:31:44.597Z,1022.15
2018-06-22T10:32:44.672Z,1022.19
2018-06-22T10:33:44.742Z,1022.15
2018-06-22T10:34:44.785Z,1022.23
2018-06-22T10:35:44.854Z,1022.14
2018-06-22T10:36:44.918Z,1022.16
2018-06-22T10:37:44.990Z,1022.15
2018-06-22T10:38:45.054Z,1022.14
2018-06-22T10:39:45.114Z,1022.14
2018-06-22T10:40:45.238Z,1022.12
2018-06-22T10:41:45.242Z,1022.09
2018-06-22T10:42:45.306Z,1022.12
2018-06-22T10:43:49.150Z,1022.14
2018-06-22T10:44:48.579Z,1022.15
2018-06-22T10:45:47.866Z,1022.19
2018-06-22T10:46:48.299Z,1022.21
2018-06-22T10:47:48.522Z,1022.25
2018-06-22T10:48:48.162Z,1022.22
2018-06-22T10:49:49.995Z,1022.18
2018-06-22T10:50:49.118Z,1022.18
2018-06-22T10:51:48.899Z,1022.16
2018-06-22T10:52:48.498Z,1022.14
2018-06-22T10:53:49.334Z,1022.11
2018-06-22T10:54:48.699Z,1022.11
2018-06-22T10:55:50.179Z,1022.12
2018-06-22T10:56:49.294Z,1022.13
2018-06-22T10:57:48.963Z,1022.16
2018-06-22T10:58:49.047Z,1022.19
2018-06-22T10:59:50.912Z,1022.10
2018-06-22T11:00:49.783Z,1022.18
2018-06-22T11:01:50.850Z,1022.21
2018-06-22T11:02:49.055Z,1022.26
2018-06-22T11:03:50.163Z,1022.29
2018-06-22T11:04:49.871Z,1022.22
2018-06-22T11:05:50.229Z,1022.20
2018-06-22T11:06:49.796Z,1022.18
2018-06-22T11:07:50.427Z,1022.20
2018-06-22T11:08:49.984Z,1022.22
2018-06-22T11:09:49.881Z,1022.24
2018-06-22T11:10:50.080Z,1022.23
2018-06-22T11:11:49.672Z,1022.28
2018-06-22T11:12:50.888Z,1022.24
2018-06-22T11:13:51.027Z,1022.22
2018-06-22T11:14:50.636Z,1022.28
2018-06-22T11:15:49.553Z,1022.28
2018-06-22T11:16:50.101Z,1022.28
2018-06-22T11:17:51.008Z,1022.30
2018-06-22T11:18:50.347Z,1022.38
2018-06-22T11:19:51.556Z,1022.33
2018-06-22T11:20:49.821Z,1022.39
2018-06-22T11:21:50.276Z,1022.39
2018-06-22T11:22:50.724Z,1022.35
2018-06-22T11:23:51.375Z,1022.33
2018-06-22T11:24:50.891Z,1022.31
2018-06-22T11:25:51.396Z,1022.33
2018-06-22T11:26:50.864Z,1022.27
2018-06-22T11:27:50.788Z,1022.25
2018-06-22T11:28:50.630Z,1022.22
2018-06-22T11:29:52.440Z,1022.23
2018-06-22T11:30:50.082Z,1022.19
2018-06-22T11:31:52.392Z,1022.20
2018-06-22T11:32:51.172Z,1022.15
2018-06-22T11:33:51.584Z,1022.15
2018-06-22T11:34:50.165Z,1022.17
2018-06-22T11:35:51.600Z,1022.23
2018-06-22T11:36:51.222Z,1022.22
2018-06-22T11:37:52.585Z,1022.30
2018-06-22T11:38:52.668Z,1022.35
2018-06-22T11:39:52.018Z,1022.34
2018-06-22T11:40:51.841Z,1022.37
2018-06-22T11:41:51.329Z,1022.40
2018-06-22T11:42:51.849Z,1022.31
2018-06-22T11:43:51.469Z,1022.31
2018-06-22T11:44:51.686Z,1022.38
2018-06-22T11:45:51.673Z,1022.35
2018-06-22T11:46:52.011Z,1022.31
2018-06-22T11:47:51.694Z,1022.29
2018-06-22T11:48:51.762Z,1022.31
2018-06-22T11:49:53.014Z,1022.30
2018-06-22T11:50:55.882Z,1022.34
2018-06-22T11:51:52.187Z,1022.34
2018-06-22T11:52:52.974Z,1022.41
2018-06-22T11:53:52.753Z,1022.44
2018-06-22T11:54:52.217Z,1022.46
2018-06-22T11:55:53.746Z,1022.48
2018-06-22T11:56:53.330Z,1022.44
2018-06-22T11:57:52.098Z,1022.50
2018-06-22T11:58:53.394Z,1022.46
2018-06-22T11:59:53.434Z,1022.51
2018-06-22T12:00:52.630Z,1022.37
2018-06-22T12:01:52.802Z,1022.39
2018-06-22T12:02:52.778Z,1022.44
2018-06-22T12:03:52.800Z,1022.44
2018-06-22T12:04:52.598Z,1022.44
2018-06-22T12:05:53.703Z,1022.45